sensor_id;sensor_type;location;lat;lon;timestamp;P1;durP1;ratioP1;P2;durP2;ratioP2
24567;SDS011;12731;52.182;8.716;2023-08-07T00:01:56;12.45;;;5.05;;
24567;SDS011;12731;52.182;8.716;2023-08-07T00:04:23;9.52;;;4.72;;
24567;SDS011;12731;52.182;8.716;2023-08-07T00:06:49;10.57;;;5.35;;
24567;SDS011;12731;52.182;8.716;2023-08-07T00:09:16;10.02;;;4.38;;
24567;SDS011;12731;52.182;8.716;2023-08-07T00:11:43;10.77;;;4.90;;
24567;SDS011;12731;52.182;8.716;2023-08-07T00:14:09;7.97;;;4.18;;
24567;SDS011;12731;52.182;8.716;2023-08-07T00:16:36;7.47;;;4.07;;
24567;SDS011;12731;52.182;8.716;2023-08-07T00:19:03;8.02;;;4.30;;
24567;SDS011;12731;52.182;8.716;2023-08-07T00:21:29;9.25;;;4.35;;
24567;SDS011;12731;52.182;8.716;2023-08-07T00:23:56;10.18;;;4.40;;
24567;SDS011;12731;52.182;8.716;2023-08-07T00:26:23;7.43;;;4.45;;
24567;SDS011;12731;52.182;8.716;2023-08-07T00:28:49;8.98;;;4.40;;
24567;SDS011;12731;52.182;8.716;2023-08-07T00:31:16;9.40;;;5.03;;
24567;SDS011;12731;52.182;8.716;2023-08-07T00:33:42;7.40;;;4.80;;
24567;SDS011;12731;52.182;8.716;2023-08-07T00:36:09;8.55;;;4.93;;
24567;SDS011;12731;52.182;8.716;2023-08-07T00:38:35;11.18;;;4.65;;
24567;SDS011;12731;52.182;8.716;2023-08-07T00:41:02;9.35;;;5.13;;
24567;SDS011;12731;52.182;8.716;2023-08-07T00:43:29;8.90;;;5.20;;
24567;SDS011;12731;52.182;8.716;2023-08-07T00:45:55;12.55;;;5.57;;
24567;SDS011;12731;52.182;8.716;2023-08-07T00:48:22;9.45;;;5.65;;
24567;SDS011;12731;52.182;8.716;2023-08-07T00:50:49;10.77;;;5.20;;
24567;SDS011;12731;52.182;8.716;2023-08-07T00:53:15;10.23;;;5.95;;
24567;SDS011;12731;52.182;8.716;2023-08-07T00:55:42;9.35;;;5.40;;
24567;SDS011;12731;52.182;8.716;2023-08-07T00:58:09;12.80;;;5.97;;
24567;SDS011;12731;52.182;8.716;2023-08-07T01:00:36;10.30;;;6.00;;
24567;SDS011;12731;52.182;8.716;2023-08-07T01:03:05;10.77;;;6.43;;
24567;SDS011;12731;52.182;8.716;2023-08-07T01:05:32;11.57;;;6.20;;
24567;SDS011;12731;52.182;8.716;2023-08-07T01:08:00;12.27;;;6.53;;
24567;SDS011;12731;52.182;8.716;2023-08-07T01:13:31;9.88;;;5.85;;
24567;SDS011;12731;52.182;8.716;2023-08-07T01:16:03;11.07;;;6.15;;
24567;SDS011;12731;52.182;8.716;2023-08-07T01:18:34;10.25;;;6.32;;
24567;SDS011;12731;52.182;8.716;2023-08-07T01:21:02;12.85;;;6.47;;
24567;SDS011;12731;52.182;8.716;2023-08-07T01:23:29;9.65;;;6.45;;
24567;SDS011;12731;52.182;8.716;2023-08-07T01:25:56;11.13;;;6.40;;
24567;SDS011;12731;52.182;8.716;2023-08-07T01:28:33;9.38;;;6.28;;
24567;SDS011;12731;52.182;8.716;2023-08-07T01:31:03;9.45;;;6.32;;
24567;SDS011;12731;52.182;8.716;2023-08-07T01:33:34;10.95;;;6.80;;
24567;SDS011;12731;52.182;8.716;2023-08-07T01:38:33;14.25;;;6.90;;
24567;SDS011;12731;52.182;8.716;2023-08-07T01:41:00;10.98;;;6.63;;
24567;SDS011;12731;52.182;8.716;2023-08-07T01:43:27;8.48;;;6.30;;
24567;SDS011;12731;52.182;8.716;2023-08-07T01:45:53;13.50;;;6.18;;
24567;SDS011;12731;52.182;8.716;2023-08-07T01:48:20;10.55;;;6.60;;
24567;SDS011;12731;52.182;8.716;2023-08-07T01:50:49;10.98;;;6.35;;
24567;SDS011;12731;52.182;8.716;2023-08-07T01:53:16;12.15;;;7.40;;
24567;SDS011;12731;52.182;8.716;2023-08-07T01:55:42;9.45;;;6.47;;
24567;SDS011;12731;52.182;8.716;2023-08-07T01:58:09;12.18;;;6.75;;
24567;SDS011;12731;52.182;8.716;2023-08-07T02:00:35;11.63;;;6.15;;
24567;SDS011;12731;52.182;8.716;2023-08-07T02:03:02;8.38;;;6.53;;
24567;SDS011;12731;52.182;8.716;2023-08-07T02:05:28;12.13;;;7.07;;
24567;SDS011;12731;52.182;8.716;2023-08-07T02:07:55;9.82;;;6.90;;
24567;SDS011;12731;52.182;8.716;2023-08-07T02:10:23;13.85;;;6.97;;
24567;SDS011;12731;52.182;8.716;2023-08-07T02:12:49;12.50;;;7.13;;
24567;SDS011;12731;52.182;8.716;2023-08-07T02:15:16;11.52;;;6.75;;
24567;SDS011;12731;52.182;8.716;2023-08-07T02:17:43;13.90;;;6.45;;
24567;SDS011;12731;52.182;8.716;2023-08-07T02:20:10;11.55;;;6.82;;
24567;SDS011;12731;52.182;8.716;2023-08-07T02:22:37;11.73;;;7.13;;
24567;SDS011;12731;52.182;8.716;2023-08-07T02:25:03;9.25;;;6.97;;
24567;SDS011;12731;52.182;8.716;2023-08-07T02:27:30;10.10;;;6.65;;
24567;SDS011;12731;52.182;8.716;2023-08-07T02:29:57;11.02;;;7.05;;
24567;SDS011;12731;52.182;8.716;2023-08-07T02:32:24;12.98;;;7.40;;
24567;SDS011;12731;52.182;8.716;2023-08-07T02:34:50;10.73;;;7.35;;
24567;SDS011;12731;52.182;8.716;2023-08-07T02:37:17;15.35;;;7.45;;
24567;SDS011;12731;52.182;8.716;2023-08-07T02:39:44;11.70;;;7.70;;
24567;SDS011;12731;52.182;8.716;2023-08-07T02:42:10;10.60;;;6.93;;
24567;SDS011;12731;52.182;8.716;2023-08-07T02:44:37;12.93;;;7.35;;
24567;SDS011;12731;52.182;8.716;2023-08-07T02:47:03;11.10;;;7.47;;
24567;SDS011;12731;52.182;8.716;2023-08-07T02:49:30;12.07;;;7.03;;
24567;SDS011;12731;52.182;8.716;2023-08-07T02:51:57;14.00;;;7.32;;
24567;SDS011;12731;52.182;8.716;2023-08-07T02:54:24;11.00;;;7.13;;
24567;SDS011;12731;52.182;8.716;2023-08-07T02:56:50;8.50;;;7.13;;
24567;SDS011;12731;52.182;8.716;2023-08-07T02:59:17;12.65;;;6.82;;
24567;SDS011;12731;52.182;8.716;2023-08-07T03:01:43;12.60;;;7.03;;
24567;SDS011;12731;52.182;8.716;2023-08-07T03:04:10;12.82;;;6.70;;
24567;SDS011;12731;52.182;8.716;2023-08-07T03:06:37;9.82;;;6.60;;
24567;SDS011;12731;52.182;8.716;2023-08-07T03:09:04;10.52;;;6.63;;
24567;SDS011;12731;52.182;8.716;2023-08-07T03:11:30;11.43;;;6.60;;
24567;SDS011;12731;52.182;8.716;2023-08-07T03:13:57;10.30;;;6.95;;
24567;SDS011;12731;52.182;8.716;2023-08-07T03:16:24;9.35;;;6.72;;
24567;SDS011;12731;52.182;8.716;2023-08-07T03:18:50;12.43;;;7.00;;
24567;SDS011;12731;52.182;8.716;2023-08-07T03:21:18;9.52;;;7.22;;
24567;SDS011;12731;52.182;8.716;2023-08-07T03:23:44;11.60;;;7.03;;
24567;SDS011;12731;52.182;8.716;2023-08-07T03:26:11;9.05;;;7.32;;
24567;SDS011;12731;52.182;8.716;2023-08-07T03:28:41;11.07;;;7.50;;
24567;SDS011;12731;52.182;8.716;2023-08-07T03:31:07;12.13;;;7.43;;
24567;SDS011;12731;52.182;8.716;2023-08-07T03:33:34;11.93;;;8.20;;
24567;SDS011;12731;52.182;8.716;2023-08-07T03:36:01;11.27;;;7.70;;
24567;SDS011;12731;52.182;8.716;2023-08-07T03:38:28;11.30;;;7.55;;
24567;SDS011;12731;52.182;8.716;2023-08-07T03:40:55;14.23;;;8.40;;
24567;SDS011;12731;52.182;8.716;2023-08-07T03:43:22;12.27;;;8.40;;
24567;SDS011;12731;52.182;8.716;2023-08-07T03:45:53;10.75;;;8.43;;
24567;SDS011;12731;52.182;8.716;2023-08-07T03:48:28;14.85;;;9.20;;
24567;SDS011;12731;52.182;8.716;2023-08-07T03:51:05;12.73;;;8.02;;
24567;SDS011;12731;52.182;8.716;2023-08-07T03:53:35;13.65;;;8.02;;
24567;SDS011;12731;52.182;8.716;2023-08-07T03:56:02;13.15;;;8.35;;
24567;SDS011;12731;52.182;8.716;2023-08-07T03:58:29;12.80;;;8.35;;
24567;SDS011;12731;52.182;8.716;2023-08-07T04:00:58;13.93;;;8.68;;
24567;SDS011;12731;52.182;8.716;2023-08-07T04:03:26;11.40;;;8.55;;
24567;SDS011;12731;52.182;8.716;2023-08-07T04:05:54;13.15;;;8.25;;
24567;SDS011;12731;52.182;8.716;2023-08-07T04:08:22;13.77;;;8.13;;
24567;SDS011;12731;52.182;8.716;2023-08-07T04:11:04;12.50;;;8.60;;
24567;SDS011;12731;52.182;8.716;2023-08-07T04:13:35;13.20;;;8.27;;
24567;SDS011;12731;52.182;8.716;2023-08-07T04:16:03;13.75;;;8.88;;
24567;SDS011;12731;52.182;8.716;2023-08-07T04:18:33;13.38;;;7.90;;
24567;SDS011;12731;52.182;8.716;2023-08-07T04:21:14;12.20;;;8.40;;
24567;SDS011;12731;52.182;8.716;2023-08-07T04:23:43;8.98;;;7.68;;
24567;SDS011;12731;52.182;8.716;2023-08-07T04:26:11;11.75;;;7.80;;
24567;SDS011;12731;52.182;8.716;2023-08-07T04:28:39;11.80;;;7.53;;
24567;SDS011;12731;52.182;8.716;2023-08-07T04:31:08;11.82;;;7.93;;
24567;SDS011;12731;52.182;8.716;2023-08-07T04:33:48;10.75;;;8.23;;
24567;SDS011;12731;52.182;8.716;2023-08-07T04:36:17;10.68;;;8.10;;
24567;SDS011;12731;52.182;8.716;2023-08-07T04:38:45;9.73;;;7.22;;
24567;SDS011;12731;52.182;8.716;2023-08-07T04:41:12;11.25;;;8.02;;
24567;SDS011;12731;52.182;8.716;2023-08-07T04:43:44;9.47;;;7.07;;
24567;SDS011;12731;52.182;8.716;2023-08-07T04:46:15;8.77;;;6.90;;
24567;SDS011;12731;52.182;8.716;2023-08-07T04:48:46;9.45;;;6.95;;
24567;SDS011;12731;52.182;8.716;2023-08-07T04:51:20;11.77;;;7.18;;
24567;SDS011;12731;52.182;8.716;2023-08-07T04:53:47;9.20;;;7.05;;
24567;SDS011;12731;52.182;8.716;2023-08-07T04:56:18;10.25;;;7.22;;
24567;SDS011;12731;52.182;8.716;2023-08-07T04:58:45;9.18;;;6.45;;
24567;SDS011;12731;52.182;8.716;2023-08-07T05:01:13;10.93;;;7.25;;
24567;SDS011;12731;52.182;8.716;2023-08-07T05:03:40;10.02;;;6.32;;
24567;SDS011;12731;52.182;8.716;2023-08-07T05:06:07;10.77;;;6.40;;
24567;SDS011;12731;52.182;8.716;2023-08-07T05:08:35;7.13;;;6.03;;
24567;SDS011;12731;52.182;8.716;2023-08-07T05:11:02;11.50;;;6.00;;
24567;SDS011;12731;52.182;8.716;2023-08-07T05:13:29;9.13;;;6.15;;
24567;SDS011;12731;52.182;8.716;2023-08-07T05:16:09;7.90;;;5.88;;
24567;SDS011;12731;52.182;8.716;2023-08-07T05:18:37;9.68;;;5.75;;
24567;SDS011;12731;52.182;8.716;2023-08-07T05:21:04;8.80;;;6.43;;
24567;SDS011;12731;52.182;8.716;2023-08-07T05:23:33;7.53;;;5.57;;
24567;SDS011;12731;52.182;8.716;2023-08-07T05:26:01;9.25;;;5.35;;
24567;SDS011;12731;52.182;8.716;2023-08-07T05:28:33;5.43;;;4.93;;
24567;SDS011;12731;52.182;8.716;2023-08-07T05:31:01;6.70;;;4.65;;
24567;SDS011;12731;52.182;8.716;2023-08-07T05:33:29;9.80;;;5.10;;
24567;SDS011;12731;52.182;8.716;2023-08-07T05:35:55;7.78;;;5.45;;
24567;SDS011;12731;52.182;8.716;2023-08-07T05:38:22;7.78;;;5.00;;
24567;SDS011;12731;52.182;8.716;2023-08-07T05:40:49;7.07;;;5.03;;
24567;SDS011;12731;52.182;8.716;2023-08-07T05:43:16;8.73;;;4.88;;
24567;SDS011;12731;52.182;8.716;2023-08-07T05:45:44;7.45;;;4.70;;
24567;SDS011;12731;52.182;8.716;2023-08-07T05:48:12;6.38;;;4.57;;
24567;SDS011;12731;52.182;8.716;2023-08-07T05:50:40;8.65;;;4.90;;
24567;SDS011;12731;52.182;8.716;2023-08-07T05:53:07;6.70;;;5.07;;
24567;SDS011;12731;52.182;8.716;2023-08-07T05:55:35;8.23;;;4.82;;
24567;SDS011;12731;52.182;8.716;2023-08-07T05:58:07;9.38;;;5.30;;
24567;SDS011;12731;52.182;8.716;2023-08-07T06:00:34;5.40;;;4.10;;
24567;SDS011;12731;52.182;8.716;2023-08-07T06:03:02;6.15;;;3.72;;
24567;SDS011;12731;52.182;8.716;2023-08-07T06:05:30;6.85;;;4.20;;
24567;SDS011;12731;52.182;8.716;2023-08-07T06:07:57;8.10;;;4.03;;
24567;SDS011;12731;52.182;8.716;2023-08-07T06:10:24;7.60;;;3.92;;
24567;SDS011;12731;52.182;8.716;2023-08-07T06:12:53;7.70;;;4.00;;
24567;SDS011;12731;52.182;8.716;2023-08-07T06:15:22;7.50;;;3.80;;
24567;SDS011;12731;52.182;8.716;2023-08-07T06:18:03;7.25;;;4.10;;
24567;SDS011;12731;52.182;8.716;2023-08-07T06:20:33;6.88;;;3.92;;
24567;SDS011;12731;52.182;8.716;2023-08-07T06:23:13;5.68;;;4.07;;
24567;SDS011;12731;52.182;8.716;2023-08-07T06:25:40;6.95;;;4.18;;
24567;SDS011;12731;52.182;8.716;2023-08-07T06:28:07;9.20;;;3.90;;
24567;SDS011;12731;52.182;8.716;2023-08-07T06:30:36;8.30;;;3.85;;
24567;SDS011;12731;52.182;8.716;2023-08-07T06:33:03;9.57;;;4.05;;
24567;SDS011;12731;52.182;8.716;2023-08-07T06:35:43;9.00;;;3.90;;
24567;SDS011;12731;52.182;8.716;2023-08-07T06:38:11;7.60;;;4.15;;
24567;SDS011;12731;52.182;8.716;2023-08-07T06:40:37;6.93;;;3.80;;
24567;SDS011;12731;52.182;8.716;2023-08-07T06:43:09;9.75;;;3.63;;
24567;SDS011;12731;52.182;8.716;2023-08-07T06:45:36;8.23;;;3.50;;
24567;SDS011;12731;52.182;8.716;2023-08-07T06:48:07;7.25;;;3.78;;
24567;SDS011;12731;52.182;8.716;2023-08-07T06:50:36;9.40;;;3.63;;
24567;SDS011;12731;52.182;8.716;2023-08-07T06:53:03;8.10;;;3.97;;
24567;SDS011;12731;52.182;8.716;2023-08-07T06:55:35;10.30;;;3.75;;
24567;SDS011;12731;52.182;8.716;2023-08-07T06:58:15;8.85;;;3.50;;
24567;SDS011;12731;52.182;8.716;2023-08-07T07:00:45;8.40;;;3.80;;
24567;SDS011;12731;52.182;8.716;2023-08-07T07:03:13;9.38;;;3.50;;
24567;SDS011;12731;52.182;8.716;2023-08-07T07:05:55;10.48;;;3.80;;
24567;SDS011;12731;52.182;8.716;2023-08-07T07:08:23;8.77;;;3.75;;
24567;SDS011;12731;52.182;8.716;2023-08-07T07:10:50;8.85;;;3.25;;
24567;SDS011;12731;52.182;8.716;2023-08-07T07:13:17;7.68;;;3.15;;
24567;SDS011;12731;52.182;8.716;2023-08-07T07:15:46;10.43;;;3.10;;
24567;SDS011;12731;52.182;8.716;2023-08-07T07:18:22;7.05;;;2.85;;
24567;SDS011;12731;52.182;8.716;2023-08-07T07:20:58;6.55;;;3.13;;
24567;SDS011;12731;52.182;8.716;2023-08-07T07:23:27;6.93;;;3.05;;
24567;SDS011;12731;52.182;8.716;2023-08-07T07:25:54;7.75;;;2.75;;
24567;SDS011;12731;52.182;8.716;2023-08-07T07:28:21;7.90;;;2.60;;
24567;SDS011;12731;52.182;8.716;2023-08-07T07:30:48;6.28;;;3.22;;
24567;SDS011;12731;52.182;8.716;2023-08-07T07:33:21;7.60;;;2.60;;
24567;SDS011;12731;52.182;8.716;2023-08-07T07:35:49;8.00;;;2.70;;
24567;SDS011;12731;52.182;8.716;2023-08-07T07:38:16;5.47;;;2.80;;
24567;SDS011;12731;52.182;8.716;2023-08-07T07:40:43;5.82;;;2.42;;
24567;SDS011;12731;52.182;8.716;2023-08-07T07:43:10;4.45;;;2.20;;
24567;SDS011;12731;52.182;8.716;2023-08-07T07:45:50;3.75;;;2.25;;
24567;SDS011;12731;52.182;8.716;2023-08-07T07:48:18;4.78;;;2.50;;
24567;SDS011;12731;52.182;8.716;2023-08-07T07:50:49;6.32;;;2.15;;
24567;SDS011;12731;52.182;8.716;2023-08-07T07:53:16;6.10;;;2.60;;
24567;SDS011;12731;52.182;8.716;2023-08-07T07:55:47;5.88;;;2.42;;
24567;SDS011;12731;52.182;8.716;2023-08-07T07:58:14;5.80;;;2.20;;
24567;SDS011;12731;52.182;8.716;2023-08-07T08:00:41;7.43;;;2.55;;
24567;SDS011;12731;52.182;8.716;2023-08-07T08:03:22;9.00;;;2.95;;
24567;SDS011;12731;52.182;8.716;2023-08-07T08:05:51;8.23;;;2.60;;
24567;SDS011;12731;52.182;8.716;2023-08-07T08:08:18;7.75;;;2.70;;
24567;SDS011;12731;52.182;8.716;2023-08-07T08:10:46;5.10;;;2.63;;
24567;SDS011;12731;52.182;8.716;2023-08-07T08:13:22;5.40;;;2.90;;
24567;SDS011;12731;52.182;8.716;2023-08-07T08:16:04;6.13;;;2.80;;
24567;SDS011;12731;52.182;8.716;2023-08-07T08:18:31;6.45;;;2.83;;
24567;SDS011;12731;52.182;8.716;2023-08-07T08:21:11;8.32;;;2.85;;
24567;SDS011;12731;52.182;8.716;2023-08-07T08:23:42;6.53;;;2.70;;
24567;SDS011;12731;52.182;8.716;2023-08-07T08:26:10;7.65;;;3.13;;
24567;SDS011;12731;52.182;8.716;2023-08-07T08:28:37;5.85;;;2.45;;
24567;SDS011;12731;52.182;8.716;2023-08-07T08:31:07;4.47;;;2.30;;
24567;SDS011;12731;52.182;8.716;2023-08-07T08:33:35;5.47;;;2.58;;
24567;SDS011;12731;52.182;8.716;2023-08-07T08:36:02;8.90;;;2.65;;
24567;SDS011;12731;52.182;8.716;2023-08-07T08:38:30;7.32;;;2.70;;
24567;SDS011;12731;52.182;8.716;2023-08-07T08:41:02;5.65;;;2.42;;
24567;SDS011;12731;52.182;8.716;2023-08-07T08:43:32;8.57;;;2.60;;
24567;SDS011;12731;52.182;8.716;2023-08-07T08:46:02;7.28;;;2.83;;
24567;SDS011;12731;52.182;8.716;2023-08-07T08:48:34;7.60;;;2.88;;
24567;SDS011;12731;52.182;8.716;2023-08-07T08:51:02;6.97;;;2.78;;
24567;SDS011;12731;52.182;8.716;2023-08-07T08:53:31;7.03;;;2.70;;
24567;SDS011;12731;52.182;8.716;2023-08-07T08:56:00;7.75;;;2.85;;
24567;SDS011;12731;52.182;8.716;2023-08-07T08:58:28;9.20;;;2.80;;
24567;SDS011;12731;52.182;8.716;2023-08-07T09:00:55;7.90;;;2.60;;
24567;SDS011;12731;52.182;8.716;2023-08-07T09:03:27;9.43;;;2.90;;
24567;SDS011;12731;52.182;8.716;2023-08-07T09:05:57;7.55;;;2.75;;
24567;SDS011;12731;52.182;8.716;2023-08-07T09:08:27;6.72;;;2.90;;
24567;SDS011;12731;52.182;8.716;2023-08-07T09:10:58;9.40;;;2.90;;
24567;SDS011;12731;52.182;8.716;2023-08-07T09:13:26;8.32;;;2.45;;
24567;SDS011;12731;52.182;8.716;2023-08-07T09:15:54;6.68;;;2.30;;
24567;SDS011;12731;52.182;8.716;2023-08-07T09:18:23;6.47;;;2.20;;
24567;SDS011;12731;52.182;8.716;2023-08-07T09:20:53;5.78;;;2.20;;
24567;SDS011;12731;52.182;8.716;2023-08-07T09:23:21;4.90;;;2.10;;
24567;SDS011;12731;52.182;8.716;2023-08-07T09:25:55;5.65;;;1.70;;
24567;SDS011;12731;52.182;8.716;2023-08-07T09:28:28;4.00;;;1.67;;
24567;SDS011;12731;52.182;8.716;2023-08-07T09:30:56;4.57;;;1.70;;
24567;SDS011;12731;52.182;8.716;2023-08-07T09:33:26;4.07;;;1.65;;
24567;SDS011;12731;52.182;8.716;2023-08-07T09:35:58;5.53;;;1.67;;
24567;SDS011;12731;52.182;8.716;2023-08-07T09:41:02;7.05;;;1.77;;
24567;SDS011;12731;52.182;8.716;2023-08-07T09:43:44;5.17;;;1.90;;
24567;SDS011;12731;52.182;8.716;2023-08-07T09:46:12;6.25;;;2.15;;
24567;SDS011;12731;52.182;8.716;2023-08-07T09:48:41;3.97;;;1.83;;
24567;SDS011;12731;52.182;8.716;2023-08-07T09:51:11;5.90;;;2.25;;
24567;SDS011;12731;52.182;8.716;2023-08-07T09:53:38;6.32;;;2.33;;
24567;SDS011;12731;52.182;8.716;2023-08-07T09:56:06;6.38;;;2.20;;
24567;SDS011;12731;52.182;8.716;2023-08-07T09:58:33;5.25;;;2.35;;
24567;SDS011;12731;52.182;8.716;2023-08-07T10:01:03;8.23;;;2.33;;
24567;SDS011;12731;52.182;8.716;2023-08-07T10:03:31;7.05;;;2.33;;
24567;SDS011;12731;52.182;8.716;2023-08-07T10:05:59;6.90;;;2.60;;
24567;SDS011;12731;52.182;8.716;2023-08-07T10:08:28;7.55;;;2.40;;
24567;SDS011;12731;52.182;8.716;2023-08-07T10:10:56;7.20;;;2.45;;
24567;SDS011;12731;52.182;8.716;2023-08-07T10:13:25;5.82;;;2.08;;
24567;SDS011;12731;52.182;8.716;2023-08-07T10:15:59;7.95;;;2.20;;
24567;SDS011;12731;52.182;8.716;2023-08-07T10:18:26;5.53;;;1.90;;
24567;SDS011;12731;52.182;8.716;2023-08-07T10:20:53;9.35;;;2.33;;
24567;SDS011;12731;52.182;8.716;2023-08-07T10:23:21;5.88;;;1.80;;
24567;SDS011;12731;52.182;8.716;2023-08-07T10:25:49;10.23;;;2.58;;
24567;SDS011;12731;52.182;8.716;2023-08-07T10:28:17;5.25;;;2.05;;
24567;SDS011;12731;52.182;8.716;2023-08-07T10:30:46;5.90;;;1.92;;
24567;SDS011;12731;52.182;8.716;2023-08-07T10:33:16;5.90;;;2.10;;
24567;SDS011;12731;52.182;8.716;2023-08-07T10:35:45;6.97;;;2.20;;
24567;SDS011;12731;52.182;8.716;2023-08-07T10:38:18;5.97;;;2.00;;
24567;SDS011;12731;52.182;8.716;2023-08-07T10:41:37;8.27;;;2.10;;
24567;SDS011;12731;52.182;8.716;2023-08-07T10:43:41;6.25;;;2.53;;
24567;SDS011;12731;52.182;8.716;2023-08-07T10:46:10;6.43;;;2.28;;
24567;SDS011;12731;52.182;8.716;2023-08-07T10:48:54;7.25;;;1.77;;
24567;SDS011;12731;52.182;8.716;2023-08-07T10:51:27;4.55;;;2.00;;
24567;SDS011;12731;52.182;8.716;2023-08-07T10:53:55;4.60;;;1.67;;
24567;SDS011;12731;52.182;8.716;2023-08-07T10:56:30;4.53;;;2.10;;
24567;SDS011;12731;52.182;8.716;2023-08-07T10:58:58;5.43;;;2.15;;
24567;SDS011;12731;52.182;8.716;2023-08-07T11:04:09;4.15;;;1.95;;
24567;SDS011;12731;52.182;8.716;2023-08-07T11:06:38;6.78;;;2.00;;
24567;SDS011;12731;52.182;8.716;2023-08-07T11:09:06;4.30;;;1.63;;
24567;SDS011;12731;52.182;8.716;2023-08-07T11:11:37;3.97;;;1.60;;
24567;SDS011;12731;52.182;8.716;2023-08-07T11:14:17;9.00;;;2.00;;
24567;SDS011;12731;52.182;8.716;2023-08-07T11:16:45;6.07;;;2.22;;
24567;SDS011;12731;52.182;8.716;2023-08-07T11:19:14;5.00;;;1.85;;
24567;SDS011;12731;52.182;8.716;2023-08-07T11:21:42;5.55;;;2.08;;
24567;SDS011;12731;52.182;8.716;2023-08-07T11:24:12;4.53;;;2.20;;
24567;SDS011;12731;52.182;8.716;2023-08-07T11:26:39;3.40;;;1.60;;
24567;SDS011;12731;52.182;8.716;2023-08-07T11:29:06;4.20;;;1.63;;
24567;SDS011;12731;52.182;8.716;2023-08-07T11:31:33;5.90;;;1.52;;
24567;SDS011;12731;52.182;8.716;2023-08-07T11:34:00;4.72;;;2.03;;
24567;SDS011;12731;52.182;8.716;2023-08-07T11:36:29;6.40;;;1.95;;
24567;SDS011;12731;52.182;8.716;2023-08-07T11:38:56;6.70;;;2.30;;
24567;SDS011;12731;52.182;8.716;2023-08-07T11:41:23;6.45;;;2.00;;
24567;SDS011;12731;52.182;8.716;2023-08-07T11:43:49;6.35;;;2.33;;
24567;SDS011;12731;52.182;8.716;2023-08-07T11:46:16;5.28;;;2.30;;
24567;SDS011;12731;52.182;8.716;2023-08-07T11:48:43;5.40;;;2.00;;
24567;SDS011;12731;52.182;8.716;2023-08-07T11:51:11;6.35;;;2.35;;
24567;SDS011;12731;52.182;8.716;2023-08-07T11:53:39;11.48;;;2.53;;
24567;SDS011;12731;52.182;8.716;2023-08-07T11:56:09;9.68;;;2.75;;
24567;SDS011;12731;52.182;8.716;2023-08-07T11:58:44;6.55;;;2.30;;
24567;SDS011;12731;52.182;8.716;2023-08-07T12:01:13;6.90;;;2.50;;
24567;SDS011;12731;52.182;8.716;2023-08-07T12:03:55;8.85;;;2.65;;
24567;SDS011;12731;52.182;8.716;2023-08-07T12:06:23;9.70;;;3.13;;
24567;SDS011;12731;52.182;8.716;2023-08-07T12:08:54;6.35;;;2.58;;
24567;SDS011;12731;52.182;8.716;2023-08-07T12:11:21;7.30;;;2.45;;
24567;SDS011;12731;52.182;8.716;2023-08-07T12:13:48;8.90;;;2.83;;
24567;SDS011;12731;52.182;8.716;2023-08-07T12:16:18;7.38;;;2.30;;
24567;SDS011;12731;52.182;8.716;2023-08-07T12:18:47;5.22;;;2.50;;
24567;SDS011;12731;52.182;8.716;2023-08-07T12:21:15;8.00;;;2.58;;
24567;SDS011;12731;52.182;8.716;2023-08-07T12:23:43;5.45;;;2.22;;
24567;SDS011;12731;52.182;8.716;2023-08-07T12:26:10;7.18;;;2.60;;
24567;SDS011;12731;52.182;8.716;2023-08-07T12:28:37;8.65;;;2.90;;
24567;SDS011;12731;52.182;8.716;2023-08-07T12:31:04;7.35;;;2.60;;
24567;SDS011;12731;52.182;8.716;2023-08-07T12:33:31;6.05;;;2.20;;
24567;SDS011;12731;52.182;8.716;2023-08-07T12:35:58;7.65;;;2.53;;
24567;SDS011;12731;52.182;8.716;2023-08-07T12:38:25;7.00;;;2.88;;
24567;SDS011;12731;52.182;8.716;2023-08-07T12:40:52;8.88;;;2.38;;
24567;SDS011;12731;52.182;8.716;2023-08-07T12:43:19;7.72;;;2.20;;
24567;SDS011;12731;52.182;8.716;2023-08-07T12:45:46;9.07;;;2.60;;
24567;SDS011;12731;52.182;8.716;2023-08-07T12:48:15;6.25;;;2.17;;
24567;SDS011;12731;52.182;8.716;2023-08-07T12:50:42;6.15;;;2.10;;
24567;SDS011;12731;52.182;8.716;2023-08-07T12:53:09;6.88;;;2.30;;
24567;SDS011;12731;52.182;8.716;2023-08-07T12:55:35;5.18;;;2.35;;
24567;SDS011;12731;52.182;8.716;2023-08-07T12:58:02;7.32;;;2.60;;
24567;SDS011;12731;52.182;8.716;2023-08-07T13:00:29;6.68;;;2.60;;
24567;SDS011;12731;52.182;8.716;2023-08-07T13:02:55;7.07;;;2.42;;
24567;SDS011;12731;52.182;8.716;2023-08-07T13:05:22;7.90;;;2.55;;
24567;SDS011;12731;52.182;8.716;2023-08-07T13:07:49;7.95;;;2.42;;
24567;SDS011;12731;52.182;8.716;2023-08-07T13:10:16;7.07;;;2.50;;
24567;SDS011;12731;52.182;8.716;2023-08-07T13:12:44;5.70;;;1.92;;
24567;SDS011;12731;52.182;8.716;2023-08-07T13:15:13;7.30;;;2.22;;
24567;SDS011;12731;52.182;8.716;2023-08-07T13:17:40;6.35;;;2.33;;
24567;SDS011;12731;52.182;8.716;2023-08-07T13:20:08;7.07;;;2.45;;
24567;SDS011;12731;52.182;8.716;2023-08-07T13:22:40;6.72;;;2.30;;
24567;SDS011;12731;52.182;8.716;2023-08-07T13:25:08;5.72;;;2.00;;
24567;SDS011;12731;52.182;8.716;2023-08-07T13:27:36;5.45;;;2.10;;
24567;SDS011;12731;52.182;8.716;2023-08-07T13:30:03;9.20;;;2.40;;
24567;SDS011;12731;52.182;8.716;2023-08-07T13:32:30;8.75;;;2.55;;
24567;SDS011;12731;52.182;8.716;2023-08-07T13:34:58;7.82;;;2.47;;
24567;SDS011;12731;52.182;8.716;2023-08-07T13:37:25;7.38;;;2.10;;
24567;SDS011;12731;52.182;8.716;2023-08-07T13:39:51;5.25;;;2.00;;
24567;SDS011;12731;52.182;8.716;2023-08-07T13:42:19;5.10;;;2.22;;
24567;SDS011;12731;52.182;8.716;2023-08-07T13:44:49;4.90;;;2.45;;
24567;SDS011;12731;52.182;8.716;2023-08-07T13:47:15;4.05;;;2.08;;
24567;SDS011;12731;52.182;8.716;2023-08-07T13:49:44;6.68;;;2.33;;
24567;SDS011;12731;52.182;8.716;2023-08-07T13:52:11;7.25;;;2.10;;
24567;SDS011;12731;52.182;8.716;2023-08-07T13:54:37;7.18;;;2.40;;
24567;SDS011;12731;52.182;8.716;2023-08-07T13:57:04;4.95;;;2.30;;
24567;SDS011;12731;52.182;8.716;2023-08-07T13:59:32;9.07;;;2.60;;
24567;SDS011;12731;52.182;8.716;2023-08-07T14:01:58;4.53;;;2.22;;
24567;SDS011;12731;52.182;8.716;2023-08-07T14:04:26;5.07;;;1.95;;
24567;SDS011;12731;52.182;8.716;2023-08-07T14:06:53;3.97;;;2.10;;
24567;SDS011;12731;52.182;8.716;2023-08-07T14:09:19;5.90;;;2.17;;
24567;SDS011;12731;52.182;8.716;2023-08-07T14:11:49;3.85;;;1.58;;
24567;SDS011;12731;52.182;8.716;2023-08-07T14:14:16;6.57;;;1.95;;
24567;SDS011;12731;52.182;8.716;2023-08-07T14:16:43;5.35;;;1.63;;
24567;SDS011;12731;52.182;8.716;2023-08-07T14:19:10;4.30;;;1.90;;
24567;SDS011;12731;52.182;8.716;2023-08-07T14:21:37;5.32;;;2.10;;
24567;SDS011;12731;52.182;8.716;2023-08-07T14:24:05;7.85;;;2.13;;
24567;SDS011;12731;52.182;8.716;2023-08-07T14:26:32;5.03;;;1.80;;
24567;SDS011;12731;52.182;8.716;2023-08-07T14:28:59;5.70;;;1.98;;
24567;SDS011;12731;52.182;8.716;2023-08-07T14:31:25;5.30;;;1.80;;
24567;SDS011;12731;52.182;8.716;2023-08-07T14:33:52;3.97;;;1.67;;
24567;SDS011;12731;52.182;8.716;2023-08-07T14:36:20;5.65;;;1.90;;
24567;SDS011;12731;52.182;8.716;2023-08-07T14:38:47;5.13;;;1.83;;
24567;SDS011;12731;52.182;8.716;2023-08-07T14:41:13;9.07;;;2.08;;
24567;SDS011;12731;52.182;8.716;2023-08-07T14:43:40;4.95;;;1.65;;
24567;SDS011;12731;52.182;8.716;2023-08-07T14:46:06;7.07;;;1.70;;
24567;SDS011;12731;52.182;8.716;2023-08-07T14:48:33;4.15;;;1.80;;
24567;SDS011;12731;52.182;8.716;2023-08-07T14:50:59;3.92;;;1.77;;
24567;SDS011;12731;52.182;8.716;2023-08-07T14:53:26;7.00;;;2.03;;
24567;SDS011;12731;52.182;8.716;2023-08-07T14:55:53;7.63;;;1.88;;
24567;SDS011;12731;52.182;8.716;2023-08-07T14:58:20;4.63;;;2.05;;
24567;SDS011;12731;52.182;8.716;2023-08-07T15:00:46;5.15;;;1.80;;
24567;SDS011;12731;52.182;8.716;2023-08-07T15:03:13;6.55;;;1.85;;